Time;durP1;ratioP1;P1;durP2;ratioP2;P2;SDS_P1;SDS_P2;PMS_P1;PMS_P2;Temp;Humidity;BMP_temperature;BMP_pressure;BME280_temperature;BME280_humidity;BME280_pressure;Samples;Min_cycle;Max_cycle;Signal;HPM_P1;HPM_P2
2022/06/16 00:00:25;;;;;;;4.87;3.43;;;22.80;81.40;;;;;;5086334;28;20427;-61
2022/06/16 00:02:56;;;;;;;4.40;4.00;;;22.70;83.70;;;;;;5086449;28;20455;-62
2022/06/16 00:05:29;;;;;;;3.53;3.23;;;22.80;81.90;;;;;;5079770;28;20490;-61
2022/06/16 00:08:02;;;;;;;3.30;2.83;;;22.70;80.70;;;;;;5088071;28;20451;-61
2022/06/16 00:10:33;;;;;;;3.83;3.20;;;22.90;85.20;;;;;;5086055;28;20875;-62
2022/06/16 00:13:04;;;;;;;3.93;3.20;;;22.80;81.20;;;;;;5087368;28;20899;-62
2022/06/16 00:15:35;;;;;;;3.50;3.20;;;22.70;82.10;;;;;;5084747;28;20443;-61
2022/06/16 00:18:06;;;;;;;4.30;3.40;;;22.40;82.70;;;;;;5082591;28;20466;-62
2022/06/16 00:20:36;;;;;;;4.50;4.10;;;22.30;81.50;;;;;;5081946;28;20486;-62
2022/06/16 00:23:09;;;;;;;4.60;2.90;;;22.30;83.70;;;;;;5082542;28;20462;-62
2022/06/16 00:25:42;;;;;;;3.77;3.23;;;22.50;85.40;;;;;;5082884;28;20498;-61
2022/06/16 00:28:12;;;;;;;4.10;3.50;;;22.50;86.80;;;;;;5080735;28;20463;-62
2022/06/16 00:30:48;;;;;;;3.60;3.30;;;22.40;85.70;;;;;;5085363;28;20450;-62
2022/06/16 00:33:22;;;;;;;3.03;2.73;;;22.50;84.40;;;;;;5085049;28;20466;-62
2022/06/16 00:35:52;;;;;;;4.10;3.40;;;22.70;85.50;;;;;;5086616;28;20447;-62
2022/06/16 00:38:25;;;;;;;4.20;3.70;;;23.00;85.10;;;;;;5084895;28;20538;-62
2022/06/16 00:41:01;;;;;;;3.50;3.20;;;23.00;85.30;;;;;;5086046;28;20455;-61
2022/06/16 00:43:37;;;;;;;4.60;3.60;;;22.80;85.60;;;;;;5082841;28;20451;-62
2022/06/16 00:46:11;;;;;;;4.30;3.70;;;23.00;80.10;;;;;;5085361;28;20966;-63
2022/06/16 00:48:48;;;;;;;3.90;3.50;;;22.80;78.80;;;;;;5086905;28;20566;-63
2022/06/16 00:51:26;;;;;;;4.40;4.00;;;22.60;76.70;;;;;;5083337;28;20542;-61
2022/06/16 00:54:06;;;;;;;3.83;3.33;;;22.80;74.40;;;;;;5084305;28;20467;-62
2022/06/16 00:56:37;;;;;;;3.60;2.80;;;22.90;74.20;;;;;;5085560;28;20462;-62
2022/06/16 00:59:09;;;;;;;3.37;2.80;;;22.90;71.50;;;;;;5083218;28;20456;-62
2022/06/16 01:01:42;;;;;;;3.40;2.90;;;22.50;75.30;;;;;;5079536;28;20564;-62
2022/06/16 01:07:04;;;;;;;3.43;2.83;;;22.60;75.60;;;;;;5083181;28;20451;-64
2022/06/16 01:09:41;;;;;;;2.83;2.50;;;22.40;78.00;;;;;;5076996;28;20459;-63
2022/06/16 01:15:28;;;;;;;2.90;2.70;;;22.00;81.70;;;;;;5073696;28;20450;-63
2022/06/16 01:18:10;;;;;;;2.60;2.40;;;21.90;82.00;;;;;;5084487;28;20447;-63
2022/06/16 01:20:49;;;;;;;3.70;3.00;;;21.90;83.00;;;;;;5073347;28;20950;-62
2022/06/16 01:23:41;;;;;;;3.53;3.00;;;21.90;85.00;;;;;;5084174;28;20672;-63
2022/06/16 01:26:56;;;;;;;3.00;2.70;;;21.80;83.50;;;;;;5081397;28;20491;-64
2022/06/16 01:29:35;;;;;;;4.57;3.20;;;21.80;85.30;;;;;;5083504;28;20463;-61
2022/06/16 01:32:12;;;;;;;3.70;3.23;;;21.80;86.50;;;;;;5077900;28;20490;-62
2022/06/16 01:34:50;;;;;;;3.60;3.10;;;21.60;86.70;;;;;;5083397;28;20490;-62
2022/06/16 01:37:30;;;;;;;3.90;3.07;;;21.50;86.70;;;;;;5079997;28;21150;-63
2022/06/16 01:40:05;;;;;;;5.20;3.80;;;21.30;88.70;;;;;;5079745;28;20473;-63
2022/06/16 01:42:42;;;;;;;4.67;3.53;;;21.50;89.00;;;;;;5067022;28;20565;-64
2022/06/16 01:45:20;;;;;;;5.77;4.40;;;21.30;89.60;;;;;;5082154;28;20497;-62
2022/06/16 01:47:52;;;;;;;4.20;3.70;;;21.20;90.70;;;;;;5077556;28;20455;-64
2022/06/16 01:50:27;;;;;;;5.07;4.37;;;21.40;90.80;;;;;;5083028;28;20455;-66
2022/06/16 01:53:02;;;;;;;4.40;3.87;;;21.40;90.50;;;;;;5083819;28;20447;-63
2022/06/16 01:55:38;;;;;;;3.90;3.60;;;21.40;90.00;;;;;;5081465;28;20462;-63
2022/06/16 01:58:12;;;;;;;4.03;3.63;;;21.20;91.50;;;;;;5082574;28;20473;-64
2022/06/16 02:00:47;;;;;;;3.83;3.30;;;21.00;90.70;;;;;;5083433;28;20449;-64
2022/06/16 02:03:24;;;;;;;5.20;4.30;;;20.90;92.50;;;;;;5081031;28;20478;-64
2022/06/16 02:05:57;;;;;;;3.90;3.50;;;20.90;94.00;;;;;;5079682;28;20482;-63
2022/06/16 02:08:34;;;;;;;3.47;3.17;;;20.70;92.30;;;;;;5081798;28;20557;-63
2022/06/16 02:11:10;;;;;;;5.23;3.57;;;20.80;90.30;;;;;;5080843;28;20473;-63
2022/06/16 02:13:47;;;;;;;3.00;2.80;;;20.90;91.40;;;;;;5065142;28;20459;-62
2022/06/16 02:16:23;;;;;;;6.40;3.27;;;21.10;92.00;;;;;;5080540;28;20437;-63
2022/06/16 02:18:55;;;;;;;3.70;3.10;;;21.10;93.10;;;;;;5073626;28;20536;-62
2022/06/16 02:21:33;;;;;;;3.20;2.70;;;21.10;93.30;;;;;;5080779;28;20462;-63
2022/06/16 02:24:06;;;;;;;3.50;2.70;;;21.20;91.60;;;;;;5081017;28;20524;-63
2022/06/16 02:26:38;;;;;;;2.63;2.43;;;20.90;88.00;;;;;;5077164;28;20485;-63
2022/06/16 02:29:25;;;;;;;2.60;2.40;;;20.70;90.10;;;;;;5082228;28;20467;-63
2022/06/16 02:32:16;;;;;;;2.90;2.70;;;20.60;90.20;;;;;;5080063;28;20463;-63
2022/06/16 02:34:59;;;;;;;3.00;2.70;;;20.70;90.80;;;;;;5082029;28;20455;-63
2022/06/16 02:37:45;;;;;;;2.90;2.67;;;20.70;91.60;;;;;;5082866;28;20463;-63
2022/06/16 02:40:42;;;;;;;3.13;2.93;;;20.70;93.60;;;;;;5079377;28;20477;-66
2022/06/16 02:43:26;;;;;;;3.00;2.73;;;20.60;92.30;;;;;;5075910;28;20451;-65
2022/06/16 02:46:04;;;;;;;3.27;2.97;;;20.70;90.60;;;;;;5080049;28;20476;-67
2022/06/16 02:48:46;;;;;;;3.40;2.57;;;20.40;91.70;;;;;;5075866;28;20447;-65
2022/06/16 02:51:23;;;;;;;3.53;2.80;;;20.30;91.70;;;;;;5081147;28;20447;-65
2022/06/16 02:54:02;;;;;;;2.90;2.40;;;20.20;94.40;;;;;;5080024;28;20428;-65
2022/06/16 02:56:38;;;;;;;2.57;2.30;;;20.20;90.80;;;;;;5081117;28;20463;-66
2022/06/16 02:59:15;;;;;;;2.57;2.37;;;20.30;90.10;;;;;;5082210;28;20982;-65
2022/06/16 03:01:46;;;;;;;2.70;2.27;;;20.30;90.50;;;;;;5080483;28;20466;-66
2022/06/16 03:04:20;;;;;;;3.00;2.60;;;20.20;90.80;;;;;;5081854;28;20476;-66
2022/06/16 03:06:50;;;;;;;2.60;2.30;;;20.20;90.80;;;;;;5081841;28;20456;-66
2022/06/16 03:09:22;;;;;;;3.53;2.60;;;20.30;91.00;;;;;;5082040;28;20434;-65
2022/06/16 03:11:53;;;;;;;2.63;2.30;;;20.20;92.00;;;;;;5080958;28;20433;-66
2022/06/16 03:14:24;;;;;;;3.33;2.73;;;20.00;92.20;;;;;;5082477;28;20506;-67
2022/06/16 03:16:55;;;;;;;3.07;2.40;;;19.90;92.50;;;;;;5081894;28;20505;-66
2022/06/16 03:19:27;;;;;;;2.07;1.87;;;19.90;92.40;;;;;;5082013;28;20454;-67
2022/06/16 03:21:58;;;;;;;2.53;2.00;;;19.80;95.00;;;;;;5081312;28;20419;-67
2022/06/16 03:24:29;;;;;;;2.97;2.70;;;19.80;95.60;;;;;;5075451;28;20445;-67
2022/06/16 03:27:00;;;;;;;2.77;2.53;;;19.70;95.30;;;;;;5080268;28;20472;-66
2022/06/16 03:29:31;;;;;;;3.00;2.70;;;19.70;96.00;;;;;;5081104;28;20466;-66
2022/06/16 03:32:02;;;;;;;2.60;2.20;;;19.80;94.90;;;;;;5080561;28;20449;-66
2022/06/16 03:34:34;;;;;;;4.27;1.90;;;19.80;92.80;;;;;;5080728;28;20479;-66
2022/06/16 03:37:05;;;;;;;3.60;2.87;;;19.90;93.40;;;;;;5080501;28;20440;-66
2022/06/16 03:39:40;;;;;;;3.37;3.07;;;19.90;92.60;;;;;;5081716;28;20462;-67
2022/06/16 03:42:11;;;;;;;2.83;2.53;;;20.00;93.20;;;;;;5079525;28;20489;-67
2022/06/16 03:44:48;;;;;;;3.77;2.70;;;20.00;92.70;;;;;;5078582;28;20558;-66
2022/06/16 03:47:19;;;;;;;4.10;2.73;;;20.00;93.70;;;;;;5081068;28;20491;-66
2022/06/16 03:49:59;;;;;;;3.90;2.60;;;19.90;93.90;;;;;;5079507;28;20489;-67
2022/06/16 03:52:30;;;;;;;4.17;2.83;;;19.80;94.10;;;;;;5079265;28;20463;-67
2022/06/16 03:55:01;;;;;;;5.47;2.93;;;19.70;95.00;;;;;;5076371;28;20467;-67
2022/06/16 03:57:32;;;;;;;3.00;2.60;;;19.70;95.30;;;;;;5078003;28;20442;-67
2022/06/16 04:00:02;;;;;;;3.30;3.00;;;19.60;95.40;;;;;;5078561;28;20442;-66
2022/06/16 04:02:34;;;;;;;4.00;2.80;;;19.60;96.00;;;;;;5078752;28;20491;-67
2022/06/16 04:05:08;;;;;;;3.27;2.70;;;19.50;96.20;;;;;;5075757;28;20438;-66
2022/06/16 04:07:42;;;;;;;3.60;2.97;;;19.50;96.20;;;;;;5081081;28;20453;-66
2022/06/16 04:10:14;;;;;;;3.00;2.67;;;19.50;96.40;;;;;;5080116;28;20445;-66
2022/06/16 04:12:45;;;;;;;4.00;2.87;;;19.40;96.40;;;;;;5078790;28;20498;-67
2022/06/16 04:15:17;;;;;;;2.43;2.23;;;19.30;96.80;;;;;;5079872;28;20422;-67
2022/06/16 04:17:49;;;;;;;2.90;2.60;;;19.20;97.00;;;;;;5077815;28;20444;-66
2022/06/16 04:20:22;;;;;;;2.97;2.70;;;19.20;97.50;;;;;;5077118;28;20509;-65
2022/06/16 04:22:53;;;;;;;3.77;2.30;;;19.10;97.30;;;;;;5080180;28;22204;-66
2022/06/16 04:25:30;;;;;;;3.10;2.80;;;19.10;97.50;;;;;;5077369;28;20454;-66
2022/06/16 04:28:02;;;;;;;3.47;2.50;;;18.90;98.20;;;;;;5079304;28;20470;-66
2022/06/16 04:30:33;;;;;;;3.00;2.70;;;18.80;99.60;;;;;;5079816;28;20460;-66
2022/06/16 04:33:04;;;;;;;3.20;2.90;;;18.80;99.40;;;;;;5079486;28;20437;-66
2022/06/16 04:35:36;;;;;;;3.73;2.57;;;18.70;99.60;;;;;;5081544;28;20470;-66
2022/06/16 04:38:09;;;;;;;3.10;2.80;;;18.60;99.30;;;;;;5084669;28;20508;-66
2022/06/16 04:40:40;;;;;;;3.50;3.20;;;18.40;99.90;;;;;;5081548;28;20787;-66
2022/06/16 04:43:14;;;;;;;2.97;2.77;;;18.30;99.90;;;;;;5084435;28;20422;-66
2022/06/16 04:45:45;;;;;;;2.87;2.63;;;18.20;99.90;;;;;;5079071;28;20787;-66
2022/06/16 04:48:16;;;;;;;2.80;2.43;;;18.10;99.90;;;;;;5084827;28;20523;-66
2022/06/16 04:50:49;;;;;;;3.10;2.60;;;18.00;99.90;;;;;;5084789;28;20451;-67
2022/06/16 04:53:19;;;;;;;3.60;2.50;;;17.80;99.90;;;;;;5084368;28;20455;-66
2022/06/16 04:55:58;;;;;;;2.97;2.43;;;17.70;99.90;;;;;;5081872;28;20462;-66
2022/06/16 04:58:30;;;;;;;2.50;2.30;;;17.60;99.90;;;;;;5084447;28;20832;-66
2022/06/16 05:01:01;;;;;;;3.47;2.67;;;17.50;99.90;;;;;;5084446;28;20438;-66
2022/06/16 05:03:49;;;;;;;3.67;2.70;;;17.50;99.90;;;;;;5084880;28;20468;-66
2022/06/16 05:06:22;;;;;;;3.30;2.13;;;17.50;99.90;;;;;;5082358;28;20434;-66
2022/06/16 05:08:53;;;;;;;3.60;2.53;;;17.50;99.90;;;;;;5084143;28;20462;-66
2022/06/16 05:11:23;;;;;;;3.20;2.90;;;17.40;99.90;;;;;;5083371;28;20514;-67
2022/06/16 05:13:54;;;;;;;3.17;2.47;;;17.40;99.90;;;;;;5082732;28;20550;-66
2022/06/16 05:16:25;;;;;;;3.13;2.70;;;17.40;99.90;;;;;;5081563;28;20546;-66
2022/06/16 05:18:56;;;;;;;3.13;2.70;;;17.40;99.90;;;;;;5082933;28;20469;-66
2022/06/16 05:21:29;;;;;;;3.70;2.77;;;17.40;99.90;;;;;;5076762;28;20539;-65
2022/06/16 05:24:03;;;;;;;3.57;2.73;;;17.50;99.90;;;;;;5083909;28;20463;-66
2022/06/16 05:26:34;;;;;;;2.83;2.53;;;17.50;99.90;;;;;;5081658;28;20455;-66
2022/06/16 05:29:05;;;;;;;3.30;2.30;;;17.50;99.90;;;;;;5083063;28;20765;-65
2022/06/16 05:31:38;;;;;;;2.97;2.03;;;17.40;99.90;;;;;;5083081;28;20459;-66
2022/06/16 05:34:13;;;;;;;2.63;2.43;;;17.30;99.90;;;;;;5082554;28;20490;-66
2022/06/16 05:36:46;;;;;;;3.23;2.87;;;17.20;99.90;;;;;;5082014;28;20478;-66
2022/06/16 05:39:17;;;;;;;3.37;2.73;;;17.30;99.90;;;;;;5082856;28;20462;-66
2022/06/16 05:41:48;;;;;;;2.63;2.37;;;17.20;99.90;;;;;;5082420;28;20439;-66
2022/06/16 05:44:19;;;;;;;2.90;2.07;;;17.20;99.90;;;;;;5078017;28;20435;-66
2022/06/16 05:46:50;;;;;;;3.03;2.67;;;17.10;99.90;;;;;;5081371;28;20531;-66
2022/06/16 05:49:21;;;;;;;4.30;2.83;;;17.20;99.90;;;;;;5082956;28;20520;-66
2022/06/16 05:51:54;;;;;;;3.83;2.93;;;17.10;99.90;;;;;;5082708;28;20470;-66
2022/06/16 05:54:24;;;;;;;2.70;2.33;;;17.10;99.90;;;;;;5083657;28;20470;-66
2022/06/16 05:56:55;;;;;;;2.67;2.47;;;17.00;99.90;;;;;;5082494;28;20491;-65
2022/06/16 05:59:26;;;;;;;3.13;2.83;;;17.00;99.90;;;;;;5082880;28;20539;-66
2022/06/16 06:01:57;;;;;;;3.37;2.70;;;17.20;99.90;;;;;;5082796;28;20463;-66
2022/06/16 06:04:30;;;;;;;2.20;2.00;;;17.10;99.90;;;;;;5083243;28;20585;-66
2022/06/16 06:07:03;;;;;;;3.67;2.60;;;17.10;99.90;;;;;;5081844;28;20551;-65
2022/06/16 06:18:20;;;;;;;3.30;2.33;;;16.90;99.90;;;;;;5083315;28;20520;-66
2022/06/16 06:20:51;;;;;;;3.33;3.03;;;16.90;99.90;;;;;;5082923;28;20450;-66
2022/06/16 06:23:23;;;;;;;3.50;2.70;;;16.90;99.90;;;;;;5083121;28;20455;-67
2022/06/16 06:25:54;;;;;;;3.20;2.43;;;16.90;99.90;;;;;;5081115;28;20890;-67
2022/06/16 06:28:25;;;;;;;4.80;2.80;;;16.80;99.90;;;;;;5081897;28;20620;-67
2022/06/16 06:30:56;;;;;;;2.43;2.23;;;16.80;99.90;;;;;;5081513;28;20605;-66
2022/06/16 06:33:27;;;;;;;3.40;3.10;;;16.80;99.90;;;;;;5082816;28;20463;-67
2022/06/16 06:35:58;;;;;;;3.60;2.93;;;16.70;99.90;;;;;;5080922;28;20478;-66
2022/06/16 06:38:30;;;;;;;3.30;2.60;;;16.70;99.90;;;;;;5081566;28;20459;-67
2022/06/16 06:41:07;;;;;;;3.10;1.93;;;16.60;99.90;;;;;;5081358;28;20545;-66
2022/06/16 06:43:40;;;;;;;3.67;3.27;;;16.60;99.90;;;;;;5081958;28;20471;-67
2022/06/16 06:46:11;;;;;;;2.70;2.40;;;16.50;99.90;;;;;;5081619;28;20471;-66
2022/06/16 06:48:42;;;;;;;3.20;2.30;;;16.50;99.90;;;;;;5081877;28;20563;-66
2022/06/16 06:51:13;;;;;;;3.60;2.73;;;16.50;99.90;;;;;;5081965;28;20471;-66
2022/06/16 06:53:46;;;;;;;2.97;2.57;;;16.50;99.90;;;;;;5082463;28;20440;-66
2022/06/16 06:56:17;;;;;;;3.40;2.67;;;16.50;99.90;;;;;;5079900;28;20474;-67
2022/06/16 06:58:48;;;;;;;5.30;2.43;;;16.50;99.90;;;;;;5063055;28;20460;-67
2022/06/16 07:01:19;;;;;;;3.60;2.40;;;16.40;99.90;;;;;;5081125;28;20451;-66
2022/06/16 07:03:52;;;;;;;2.50;2.30;;;16.30;99.90;;;;;;5082750;28;20459;-66
2022/06/16 07:06:23;;;;;;;5.00;3.30;;;16.30;99.90;;;;;;5081676;28;20451;-66
2022/06/16 07:08:59;;;;;;;2.77;2.53;;;16.20;99.90;;;;;;5080958;28;20574;-67
2022/06/16 07:11:30;;;;;;;3.93;2.90;;;16.10;99.90;;;;;;5080815;28;20893;-67
2022/06/16 07:14:01;;;;;;;4.30;2.50;;;16.10;99.90;;;;;;5081626;28;20463;-67
2022/06/16 07:16:32;;;;;;;2.70;2.50;;;16.10;99.90;;;;;;5076481;28;20465;-67
2022/06/16 07:19:03;;;;;;;2.83;2.20;;;16.00;99.90;;;;;;5081680;28;20509;-67
2022/06/16 07:21:34;;;;;;;2.90;2.40;;;16.00;99.90;;;;;;5081797;28;20438;-66
2022/06/16 07:24:09;;;;;;;2.97;2.40;;;15.90;99.90;;;;;;5081782;28;20464;-67
2022/06/16 07:26:40;;;;;;;3.40;3.10;;;15.90;99.90;;;;;;5079339;28;20463;-66
2022/06/16 07:29:11;;;;;;;3.10;2.57;;;15.90;99.90;;;;;;5080704;28;20495;-65
2022/06/16 07:31:42;;;;;;;3.23;2.23;;;15.90;99.90;;;;;;5081376;28;20452;-65
2022/06/16 07:34:16;;;;;;;3.33;2.93;;;15.90;99.90;;;;;;5081829;28;20466;-65
2022/06/16 07:36:47;;;;;;;4.30;3.27;;;15.90;99.90;;;;;;5077695;28;20471;-65
2022/06/16 07:39:19;;;;;;;3.57;2.70;;;15.90;99.90;;;;;;5080748;28;20452;-65
2022/06/16 07:41:50;;;;;;;2.87;2.57;;;15.90;99.90;;;;;;5080554;28;20455;-65
2022/06/16 07:44:23;;;;;;;4.30;2.90;;;15.90;99.90;;;;;;5081248;28;20460;-65
2022/06/16 07:47:04;;;;;;;3.53;3.20;;;15.80;99.90;;;;;;5077098;28;20446;-66
2022/06/16 07:49:38;;;;;;;4.33;2.73;;;15.80;99.90;;;;;;5081114;28;20494;-65
2022/06/16 07:52:21;;;;;;;3.37;2.63;;;15.80;99.90;;;;;;5081382;28;20517;-65
2022/06/16 07:54:53;;;;;;;3.27;2.57;;;15.80;99.90;;;;;;5080233;28;20539;-65
2022/06/16 07:57:26;;;;;;;4.10;2.43;;;15.80;99.90;;;;;;5071829;28;20582;-65
2022/06/16 07:59:59;;;;;;;3.23;2.80;;;15.90;99.90;;;;;;5080050;28;20463;-65
2022/06/16 08:02:31;;;;;;;3.43;2.83;;;15.90;99.90;;;;;;5081005;28;20467;-65
2022/06/16 08:05:01;;;;;;;2.73;2.53;;;15.80;99.90;;;;;;5081975;28;20868;-66
2022/06/16 08:07:32;;;;;;;5.00;3.60;;;15.70;99.90;;;;;;5080137;28;20461;-66
2022/06/16 08:10:08;;;;;;;3.33;3.00;;;15.60;99.90;;;;;;5080765;28;20498;-66
2022/06/16 08:12:39;;;;;;;3.10;2.80;;;15.50;99.90;;;;;;5081272;28;20777;-65
2022/06/16 08:15:10;;;;;;;5.80;3.07;;;15.50;99.90;;;;;;5084418;28;20467;-66
2022/06/16 08:17:47;;;;;;;2.77;2.50;;;15.40;99.90;;;;;;5081525;28;20489;-66
2022/06/16 08:20:18;;;;;;;3.60;2.50;;;15.40;99.90;;;;;;5083012;28;20555;-66
2022/06/16 08:22:49;;;;;;;2.60;2.17;;;15.40;99.90;;;;;;5084255;28;20459;-65
2022/06/16 08:25:21;;;;;;;3.37;2.50;;;15.40;99.90;;;;;;5084042;28;20467;-66
2022/06/16 08:27:52;;;;;;;3.30;2.60;;;15.40;99.90;;;;;;5084030;28;20999;-65
2022/06/16 08:30:24;;;;;;;3.10;2.07;;;15.40;99.90;;;;;;5084335;28;20494;-65
2022/06/16 08:32:55;;;;;;;3.00;2.70;;;15.40;99.90;;;;;;5084932;28;20537;-66
2022/06/16 08:35:26;;;;;;;4.53;3.03;;;15.40;99.90;;;;;;5084759;28;20443;-66
2022/06/16 08:37:58;;;;;;;2.97;2.30;;;15.40;99.90;;;;;;5085766;28;20426;-65
2022/06/16 08:40:33;;;;;;;2.97;2.40;;;15.50;99.90;;;;;;5083563;28;20467;-65
2022/06/16 08:43:10;;;;;;;4.00;2.60;;;15.50;99.90;;;;;;5084662;28;20466;-65
2022/06/16 08:45:50;;;;;;;3.30;2.50;;;15.50;99.90;;;;;;5083229;28;20484;-65
2022/06/16 08:48:28;;;;;;;6.60;2.90;;;15.50;99.90;;;;;;5083266;28;20455;-66
2022/06/16 08:51:06;;;;;;;2.60;2.40;;;15.50;99.90;;;;;;5083092;28;20471;-66
2022/06/16 08:54:08;;;;;;;3.57;2.60;;;15.50;99.90;;;;;;5084807;28;20474;-65
2022/06/16 08:56:46;;;;;;;3.50;3.17;;;15.50;99.90;;;;;;5082935;28;20455;-66
2022/06/16 08:59:28;;;;;;;3.33;2.57;;;15.50;99.90;;;;;;5084194;28;20469;-66
2022/06/16 09:02:06;;;;;;;2.80;2.53;;;15.50;99.90;;;;;;5082374;28;20464;-65
2022/06/16 09:04:42;;;;;;;2.70;2.50;;;15.40;99.90;;;;;;5076170;28;20465;-65
2022/06/16 09:07:27;;;;;;;3.50;2.90;;;15.30;99.90;;;;;;5083704;28;20462;-66
2022/06/16 09:10:16;;;;;;;2.60;2.40;;;15.30;99.90;;;;;;5082094;28;20490;-65
2022/06/16 09:13:16;;;;;;;4.30;2.87;;;15.20;99.90;;;;;;5084228;28;20845;-65
2022/06/16 09:16:03;;;;;;;3.80;2.80;;;15.10;99.90;;;;;;5069028;28;20539;-65
2022/06/16 09:18:46;;;;;;;3.83;3.03;;;15.10;99.90;;;;;;5083618;28;20466;-66
2022/06/16 09:21:26;;;;;;;3.50;3.03;;;15.10;99.90;;;;;;5080238;28;20459;-65
2022/06/16 09:24:24;;;;;;;3.03;2.57;;;15.10;99.90;;;;;;5084325;28;20463;-65
2022/06/16 09:27:05;;;;;;;3.33;2.43;;;15.10;99.90;;;;;;5079225;28;20469;-66
2022/06/16 09:29:42;;;;;;;4.20;2.70;;;15.20;99.90;;;;;;5083221;28;20465;-65
2022/06/16 09:32:21;;;;;;;2.60;2.40;;;15.10;99.90;;;;;;5080849;28;20485;-65
2022/06/16 09:34:58;;;;;;;4.27;3.27;;;15.00;99.90;;;;;;5075384;28;20554;-65
2022/06/16 09:37:35;;;;;;;6.23;3.27;;;14.90;99.90;;;;;;5082090;28;20459;-65
2022/06/16 09:40:13;;;;;;;3.20;2.67;;;14.90;99.90;;;;;;5082189;28;20463;-65
2022/06/16 09:42:48;;;;;;;3.60;2.70;;;14.80;99.90;;;;;;5082393;28;20530;-65
2022/06/16 09:45:26;;;;;;;3.10;2.80;;;14.80;99.90;;;;;;5082111;28;20805;-65
2022/06/16 09:48:09;;;;;;;4.40;3.60;;;14.70;99.90;;;;;;5083125;28;20459;-65
2022/06/16 09:50:47;;;;;;;2.77;2.57;;;14.80;99.90;;;;;;5082261;28;20491;-65
2022/06/16 09:53:27;;;;;;;3.10;2.80;;;14.90;99.90;;;;;;5083619;28;20475;-65
2022/06/16 09:56:05;;;;;;;3.93;3.17;;;15.00;99.90;;;;;;5082046;28;20517;-65
2022/06/16 09:58:40;;;;;;;4.03;2.77;;;14.90;99.90;;;;;;5082890;28;20467;-65
2022/06/16 10:01:15;;;;;;;3.67;3.33;;;14.90;99.90;;;;;;5082007;28;20478;-65
2022/06/16 10:03:58;;;;;;;3.53;3.17;;;14.90;99.90;;;;;;5082627;28;20520;-65
2022/06/16 10:06:39;;;;;;;3.90;3.50;;;14.80;99.90;;;;;;5081599;28;20518;-65
2022/06/16 10:09:20;;;;;;;4.63;3.37;;;14.60;99.90;;;;;;5079431;28;20843;-65
2022/06/16 10:12:02;;;;;;;4.43;3.30;;;14.60;99.90;;;;;;5081116;28;20463;-65
2022/06/16 10:14:40;;;;;;;4.77;3.30;;;14.60;99.90;;;;;;5068079;28;20527;-65
2022/06/16 10:17:15;;;;;;;4.40;4.00;;;14.60;99.90;;;;;;5081671;28;20443;-65
2022/06/16 10:19:47;;;;;;;4.53;3.40;;;14.60;99.90;;;;;;5081939;28;20486;-65
2022/06/16 10:22:21;;;;;;;3.90;2.83;;;14.60;99.90;;;;;;5081142;28;20456;-65
2022/06/16 10:24:58;;;;;;;3.60;2.97;;;14.60;99.90;;;;;;5082009;28;20817;-65
2022/06/16 10:27:34;;;;;;;2.70;2.37;;;14.60;99.90;;;;;;5081762;28;20455;-65
2022/06/16 10:30:08;;;;;;;3.23;2.87;;;14.70;99.90;;;;;;5080687;28;20491;-65
2022/06/16 10:32:44;;;;;;;3.73;3.20;;;14.70;99.90;;;;;;5082342;28;20463;-65
2022/06/16 10:35:19;;;;;;;4.10;3.10;;;14.80;99.90;;;;;;5081845;28;21103;-65
2022/06/16 10:37:54;;;;;;;3.47;2.60;;;14.80;99.90;;;;;;5081663;28;20438;-65
2022/06/16 10:40:31;;;;;;;3.13;2.77;;;14.90;99.90;;;;;;5079174;28;20455;-65
2022/06/16 10:43:22;;;;;;;6.13;2.57;;;14.90;99.90;;;;;;5081258;28;20518;-65
2022/06/16 10:46:04;;;;;;;3.10;2.33;;;14.80;99.90;;;;;;5082659;28;20751;-65
2022/06/16 10:48:39;;;;;;;3.00;2.40;;;14.80;99.90;;;;;;5081620;28;20463;-65
2022/06/16 10:51:14;;;;;;;2.73;2.37;;;14.80;99.90;;;;;;5080078;28;20498;-65
2022/06/16 10:53:46;;;;;;;3.47;2.47;;;14.80;99.90;;;;;;5080293;28;20477;-65
2022/06/16 10:56:20;;;;;;;2.83;2.17;;;14.70;99.90;;;;;;5080575;28;20460;-65
2022/06/16 10:58:59;;;;;;;4.57;3.30;;;14.60;99.90;;;;;;5081177;28;20455;-65
2022/06/16 11:01:36;;;;;;;4.20;2.20;;;14.60;99.90;;;;;;5081716;28;20465;-65
2022/06/16 11:04:11;;;;;;;2.50;2.20;;;14.40;99.90;;;;;;5082357;28;20450;-65
2022/06/16 11:06:49;;;;;;;2.63;2.20;;;14.40;99.90;;;;;;5081273;28;20458;-65
2022/06/16 11:09:21;;;;;;;4.20;3.17;;;14.40;99.90;;;;;;5081051;28;20496;-65
2022/06/16 11:11:58;;;;;;;3.10;2.63;;;14.40;99.90;;;;;;5080676;28;20483;-65
2022/06/16 11:14:35;;;;;;;3.20;2.90;;;14.40;99.90;;;;;;5081222;28;20463;-66
2022/06/16 11:17:12;;;;;;;3.47;2.70;;;14.40;99.90;;;;;;5080882;28;20554;-66
2022/06/16 11:19:48;;;;;;;5.67;3.10;;;14.20;99.90;;;;;;5080136;28;20475;-66
2022/06/16 11:22:28;;;;;;;3.20;2.50;;;14.30;99.90;;;;;;5081391;28;20454;-65
2022/06/16 11:25:05;;;;;;;3.20;2.80;;;14.40;99.90;;;;;;5079918;28;20463;-65
2022/06/16 11:27:47;;;;;;;2.97;2.70;;;14.30;99.90;;;;;;5080035;28;20481;-65
2022/06/16 11:30:33;;;;;;;2.47;2.27;;;14.40;99.90;;;;;;5080495;28;20494;-65
2022/06/16 11:33:06;;;;;;;3.00;2.43;;;14.40;99.90;;;;;;5081022;28;20485;-65
2022/06/16 11:35:44;;;;;;;3.90;2.47;;;14.30;99.90;;;;;;5080950;28;20459;-65
2022/06/16 11:38:21;;;;;;;4.13;2.50;;;14.30;99.90;;;;;;5080330;28;20447;-65
2022/06/16 11:40:59;;;;;;;3.50;2.80;;;14.30;99.90;;;;;;5079450;28;20459;-65
2022/06/16 11:44:00;;;;;;;2.33;1.93;;;14.40;99.90;;;;;;5080214;28;20814;-65
2022/06/16 11:46:39;;;;;;;2.43;2.20;;;14.40;99.90;;;;;;5073849;28;20463;-65
2022/06/16 11:49:20;;;;;;;3.50;2.60;;;14.30;99.90;;;;;;5080611;28;20467;-65
2022/06/16 11:51:59;;;;;;;3.20;2.90;;;14.30;99.90;;;;;;5079794;28;20491;-65
2022/06/16 11:54:45;;;;;;;4.30;3.10;;;14.30;99.90;;;;;;5081234;28;20469;-65
2022/06/16 11:57:26;;;;;;;2.77;2.57;;;14.30;99.90;;;;;;5079858;28;20557;-65
2022/06/16 12:00:27;;;;;;;2.43;2.23;;;14.40;99.90;;;;;;5081558;28;20485;-65
2022/06/16 12:03:44;;;;;;;5.70;2.93;;;14.40;99.90;;;;;;5080717;28;20485;-65
2022/06/16 12:06:38;;;;;;;2.80;2.47;;;14.30;99.90;;;;;;5079502;28;20551;-65
2022/06/16 12:09:23;;;;;;;3.80;3.43;;;14.30;99.90;;;;;;5081021;28;20469;-65
2022/06/16 12:12:07;;;;;;;2.63;2.27;;;14.40;99.90;;;;;;5079247;28;21029;-65
2022/06/16 12:14:48;;;;;;;3.60;2.73;;;14.30;99.90;;;;;;5079400;28;20455;-66
2022/06/16 12:17:25;;;;;;;3.50;2.53;;;14.30;99.90;;;;;;5079024;28;20466;-65
2022/06/16 12:20:04;;;;;;;3.57;2.50;;;14.20;99.90;;;;;;5076509;28;20482;-65
2022/06/16 12:23:00;;;;;;;2.30;2.10;;;14.20;99.90;;;;;;5075299;28;20439;-65
2022/06/16 12:25:39;;;;;;;2.37;2.17;;;14.20;99.90;;;;;;5078091;28;20492;-65
2022/06/16 12:28:18;;;;;;;3.97;2.30;;;14.30;99.90;;;;;;5081244;28;20517;-65
2022/06/16 12:30:56;;;;;;;3.00;2.80;;;14.30;99.90;;;;;;5079436;28;20494;-65
2022/06/16 12:33:36;;;;;;;3.80;3.17;;;14.30;99.90;;;;;;5079219;28;20463;-65
2022/06/16 12:36:11;;;;;;;3.77;2.97;;;14.30;99.90;;;;;;5080164;28;20459;-65
2022/06/16 12:38:48;;;;;;;3.30;3.00;;;14.20;99.90;;;;;;5081918;28;20530;-65
2022/06/16 12:41:24;;;;;;;6.00;3.43;;;14.20;99.90;;;;;;5071141;28;20469;-65
2022/06/16 12:44:00;;;;;;;3.47;3.17;;;14.30;99.90;;;;;;5080988;28;20446;-65
2022/06/16 12:46:37;;;;;;;3.43;3.13;;;14.40;99.90;;;;;;5080855;28;20629;-65
2022/06/16 12:49:14;;;;;;;3.67;3.37;;;14.40;99.90;;;;;;5079860;28;20478;-65
2022/06/16 12:51:49;;;;;;;3.23;2.93;;;14.40;99.90;;;;;;5079454;28;20529;-65
2022/06/16 12:54:25;;;;;;;2.40;2.17;;;14.40;99.90;;;;;;5080754;28;20469;-66
2022/06/16 12:57:02;;;;;;;3.80;3.17;;;14.40;99.90;;;;;;5083778;28;20459;-66
2022/06/16 12:59:38;;;;;;;3.47;3.17;;;14.40;99.90;;;;;;5084062;28;20467;-66
2022/06/16 13:02:15;;;;;;;3.47;3.03;;;14.40;99.90;;;;;;5083305;28;20459;-64
2022/06/16 13:04:47;;;;;;;3.40;3.10;;;14.40;99.90;;;;;;5084276;28;20465;-64
2022/06/16 13:07:22;;;;;;;3.93;2.93;;;14.50;99.90;;;;;;5084582;28;20459;-65
2022/06/16 13:10:00;;;;;;;3.43;2.80;;;14.50;99.90;;;;;;5083129;28;20467;-65
2022/06/16 13:12:39;;;;;;;3.50;2.97;;;14.50;99.90;;;;;;5081759;28;20495;-66
2022/06/16 13:15:21;;;;;;;4.20;2.80;;;14.50;99.90;;;;;;5079527;28;20450;-66
2022/06/16 13:18:02;;;;;;;3.20;2.73;;;14.50;99.90;;;;;;5084917;28;20451;-67
2022/06/16 13:20:35;;;;;;;3.83;2.80;;;14.50;99.90;;;;;;5084368;28;20560;-67
2022/06/16 13:23:12;;;;;;;3.40;2.90;;;14.60;99.90;;;;;;5084685;28;20452;-66
2022/06/16 13:25:54;;;;;;;3.20;2.87;;;14.50;99.90;;;;;;5083508;28;20444;-67
2022/06/16 13:28:33;;;;;;;3.60;2.83;;;14.60;99.90;;;;;;5085041;28;20466;-65
2022/06/16 13:31:24;;;;;;;5.83;2.70;;;14.70;99.90;;;;;;5084563;28;20535;-67
2022/06/16 13:34:14;;;;;;;3.93;2.47;;;14.70;99.90;;;;;;5083087;28;20436;-68
2022/06/16 13:36:53;;;;;;;2.97;2.03;;;14.70;99.90;;;;;;5071794;28;20462;-67
2022/06/16 13:40:13;;;;;;;2.67;2.20;;;14.70;99.90;;;;;;5077886;28;20939;-67
2022/06/16 13:42:48;;;;;;;3.23;2.07;;;14.80;99.90;;;;;;5094376;28;20463;-67
2022/06/16 13:45:52;;;;;;;2.90;2.30;;;14.70;99.90;;;;;;5079491;28;20834;-67
2022/06/16 13:48:49;;;;;;;4.20;2.73;;;14.70;99.90;;;;;;5079930;28;20546;-66